Time;durP1;ratioP1;P1;durP2;ratioP2;P2;SDS_P1;SDS_P2;PMS_P1;PMS_P2;Temp;Humidity;BMP_temperature;BMP_pressure;BME280_temperature;BME280_humidity;BME280_pressure;Samples;Min_cycle;Max_cycle;Signal;HPM_P1;HPM_P2
2021/04/01 00:01:09;;;;;;;58.50;28.23;;;11.10;99.90;;;;;;4944581;29;20193;-84
2021/04/01 00:03:35;;;;;;;51.63;27.67;;;11.10;99.90;;;;;;4960663;28;20193;-85
2021/04/01 00:06:01;;;;;;;49.37;25.77;;;11.10;99.90;;;;;;4962950;28;20192;-84
2021/04/01 00:08:26;;;;;;;54.53;26.33;;;11.00;99.90;;;;;;4963260;28;20194;-85
2021/04/01 00:10:52;;;;;;;58.00;28.83;;;11.00;99.90;;;;;;4962289;28;20571;-86
2021/04/01 00:13:17;;;;;;;57.63;28.07;;;10.90;99.90;;;;;;4962699;28;20519;-84
2021/04/01 00:15:43;;;;;;;53.83;27.47;;;10.90;99.90;;;;;;4963180;28;20207;-84
2021/04/01 00:18:16;;;;;;;51.33;26.20;;;10.90;99.90;;;;;;4962527;28;20184;-86
2021/04/01 00:20:41;;;;;;;52.10;27.87;;;10.80;99.90;;;;;;4979804;28;20195;-85
2021/04/01 00:23:07;;;;;;;50.00;24.87;;;10.90;99.90;;;;;;4962349;28;20580;-86
2021/04/01 00:25:32;;;;;;;51.70;26.77;;;10.80;99.90;;;;;;4962222;28;20293;-87
2021/04/01 00:27:58;;;;;;;52.20;26.13;;;10.80;99.90;;;;;;4962415;28;20185;-85
2021/04/01 00:30:24;;;;;;;49.90;26.60;;;10.60;99.90;;;;;;4961809;28;20572;-84
2021/04/01 00:32:49;;;;;;;53.47;28.30;;;10.60;99.90;;;;;;4961728;28;20176;-85
2021/04/01 00:35:15;;;;;;;58.90;28.87;;;10.50;99.90;;;;;;4961948;28;20291;-85
2021/04/01 00:37:41;;;;;;;53.13;26.57;;;10.50;99.90;;;;;;4961216;28;20589;-85
2021/04/01 00:40:07;;;;;;;56.33;26.87;;;10.50;99.90;;;;;;4961229;28;20235;-84
2021/04/01 00:42:34;;;;;;;52.33;27.33;;;10.40;99.90;;;;;;4961768;28;20183;-84
2021/04/01 00:45:06;;;;;;;56.70;29.17;;;10.50;99.90;;;;;;4961193;28;20258;-85
2021/04/01 00:47:36;;;;;;;53.43;27.97;;;10.50;99.90;;;;;;4961324;28;20189;-84
2021/04/01 00:50:09;;;;;;;54.70;28.80;;;10.50;99.90;;;;;;4960960;28;20237;-84
2021/04/01 00:52:34;;;;;;;59.03;29.97;;;10.40;99.90;;;;;;4953560;29;20271;-84
2021/04/01 00:55:00;;;;;;;53.93;28.57;;;10.50;99.90;;;;;;4958749;29;20214;-84
2021/04/01 00:57:27;;;;;;;63.20;30.23;;;10.50;99.90;;;;;;4941754;29;20176;-83
2021/04/01 00:59:54;;;;;;;52.47;26.50;;;10.30;99.90;;;;;;4941155;29;20559;-84
2021/04/01 01:02:20;;;;;;;56.43;27.87;;;10.30;99.90;;;;;;4941649;29;20184;-84
2021/04/01 01:04:46;;;;;;;57.53;30.10;;;10.40;99.90;;;;;;4941588;29;20670;-84
2021/04/01 01:07:11;;;;;;;58.20;30.03;;;10.40;99.90;;;;;;4941389;29;20182;-84
2021/04/01 01:09:37;;;;;;;56.43;29.63;;;10.40;99.90;;;;;;4941745;29;20685;-84
2021/04/01 01:12:02;;;;;;;55.67;27.60;;;10.50;99.90;;;;;;4942103;28;20177;-86
2021/04/01 01:14:28;;;;;;;57.10;28.47;;;10.40;99.90;;;;;;4961119;28;20177;-84
2021/04/01 01:16:53;;;;;;;58.93;29.03;;;10.40;99.90;;;;;;4960732;28;20179;-83
2021/04/01 01:19:20;;;;;;;59.53;29.43;;;10.50;99.90;;;;;;4958213;28;20194;-87
2021/04/01 01:21:46;;;;;;;59.20;29.07;;;10.50;99.90;;;;;;4960222;28;20239;-84
2021/04/01 01:24:16;;;;;;;64.87;30.27;;;10.40;99.90;;;;;;4959076;28;20222;-84
2021/04/01 01:26:43;;;;;;;64.13;29.67;;;10.40;99.90;;;;;;4939896;29;20628;-85
2021/04/01 01:29:09;;;;;;;67.10;31.73;;;10.30;99.90;;;;;;4940038;29;20297;-85
2021/04/01 01:31:44;;;;;;;63.70;29.57;;;10.30;99.90;;;;;;4958045;28;20255;-86
2021/04/01 01:34:10;;;;;;;70.50;31.67;;;10.30;99.90;;;;;;4940044;29;20182;-85
2021/04/01 01:36:35;;;;;;;72.43;33.50;;;10.20;99.90;;;;;;4940849;29;20170;-85
2021/04/01 01:39:01;;;;;;;72.27;34.63;;;10.20;99.90;;;;;;4954181;28;20202;-85
2021/04/01 01:41:27;;;;;;;70.13;34.93;;;10.20;99.90;;;;;;4959617;28;20191;-84
2021/04/01 01:43:54;;;;;;;76.30;36.60;;;10.20;99.90;;;;;;4958199;28;20193;-85
2021/04/01 01:46:19;;;;;;;76.43;35.27;;;10.20;99.90;;;;;;4958952;28;20207;-84
2021/04/01 01:48:45;;;;;;;79.67;36.63;;;10.00;99.90;;;;;;4958482;28;20224;-84
2021/04/01 01:51:10;;;;;;;69.27;35.17;;;10.00;99.90;;;;;;4958831;28;20680;-85
2021/04/01 01:53:36;;;;;;;84.87;38.00;;;10.00;99.90;;;;;;4941164;29;20251;-85
2021/04/01 01:56:02;;;;;;;77.83;37.07;;;10.10;99.90;;;;;;4957206;29;20222;-85
2021/04/01 01:58:28;;;;;;;77.90;37.20;;;10.10;99.90;;;;;;4939834;28;20205;-83
2021/04/01 02:00:56;;;;;;;82.03;36.93;;;10.10;99.90;;;;;;4940055;29;20187;-86
2021/04/01 02:03:25;;;;;;;78.27;36.63;;;10.00;99.90;;;;;;4944449;28;20182;-83
2021/04/01 02:05:52;;;;;;;82.43;40.37;;;10.00;99.90;;;;;;4959120;28;20554;-83
2021/04/01 02:08:19;;;;;;;79.20;39.20;;;10.00;99.90;;;;;;4959677;28;20664;-84
2021/04/01 02:10:49;;;;;;;88.57;38.83;;;10.00;99.90;;;;;;4941505;29;20211;-85
2021/04/01 02:13:17;;;;;;;81.10;39.40;;;10.00;99.90;;;;;;4940635;29;20194;-84
2021/04/01 02:15:44;;;;;;;84.57;40.17;;;10.00;99.90;;;;;;4940643;29;20270;-83
2021/04/01 02:18:13;;;;;;;85.40;39.33;;;9.90;99.90;;;;;;4940494;29;20190;-86
2021/04/01 02:20:41;;;;;;;79.67;38.80;;;10.00;99.90;;;;;;4940901;29;20195;-84
2021/04/01 02:23:15;;;;;;;84.37;39.40;;;10.00;99.90;;;;;;4940520;29;20194;-84
2021/04/01 02:25:42;;;;;;;89.20;40.53;;;10.00;99.90;;;;;;4957941;28;20677;-84
2021/04/01 02:28:09;;;;;;;87.83;41.57;;;10.10;99.90;;;;;;4939135;28;20195;-85
2021/04/01 02:30:36;;;;;;;83.57;40.53;;;10.00;99.90;;;;;;4957827;28;20210;-86
2021/04/01 02:33:03;;;;;;;85.53;41.10;;;10.00;99.90;;;;;;4957190;28;20629;-85
2021/04/01 02:35:28;;;;;;;81.37;41.33;;;9.90;99.90;;;;;;4958034;28;20302;-86
2021/04/01 02:37:54;;;;;;;84.80;40.53;;;9.80;99.90;;;;;;4975262;28;20798;-85
2021/04/01 02:40:21;;;;;;;86.00;40.53;;;9.80;99.90;;;;;;4975420;28;20202;-84
2021/04/01 02:42:46;;;;;;;83.27;39.43;;;9.80;99.90;;;;;;4957589;28;20244;-84
2021/04/01 02:45:14;;;;;;;88.80;43.17;;;9.70;99.90;;;;;;4956477;28;20610;-83
2021/04/01 02:47:40;;;;;;;78.70;38.70;;;9.60;99.90;;;;;;4956143;28;20206;-86
2021/04/01 02:50:07;;;;;;;75.83;37.30;;;9.60;99.90;;;;;;4955355;29;20681;-84
2021/04/01 02:52:33;;;;;;;81.07;34.77;;;9.50;99.90;;;;;;4938393;29;20178;-85
2021/04/01 02:54:58;;;;;;;86.93;40.83;;;9.30;99.90;;;;;;4952856;28;20558;-86
2021/04/01 02:57:24;;;;;;;78.80;39.10;;;9.10;99.90;;;;;;4958953;28;20182;-84
2021/04/01 02:59:50;;;;;;;70.90;35.73;;;9.20;99.90;;;;;;4976362;28;20205;-83
2021/04/01 03:02:17;;;;;;;72.87;34.67;;;9.20;99.90;;;;;;4958792;28;20740;-82
2021/04/01 03:04:43;;;;;;;65.67;31.87;;;9.20;99.90;;;;;;4959097;28;20182;-83
2021/04/01 03:07:09;;;;;;;62.77;30.67;;;9.00;99.90;;;;;;4976491;28;20171;-84
2021/04/01 03:09:35;;;;;;;59.93;28.97;;;9.00;99.90;;;;;;4959089;28;20210;-84
2021/04/01 03:12:01;;;;;;;58.47;30.33;;;9.00;99.90;;;;;;4976444;28;20178;-83
2021/04/01 03:14:27;;;;;;;60.93;30.63;;;9.10;99.90;;;;;;4958053;28;20218;-83
2021/04/01 03:16:53;;;;;;;55.27;27.97;;;9.20;99.90;;;;;;4958619;28;20545;-83
2021/04/01 03:19:19;;;;;;;57.13;26.67;;;9.30;99.90;;;;;;4951005;29;20198;-86
2021/04/01 03:21:45;;;;;;;57.93;28.80;;;9.40;99.90;;;;;;4939470;29;20183;-84
2021/04/01 03:24:12;;;;;;;58.03;28.60;;;9.20;99.90;;;;;;4939961;29;20182;-85
2021/04/01 03:26:38;;;;;;;59.60;29.33;;;9.20;99.90;;;;;;4958028;28;20192;-85
2021/04/01 03:29:05;;;;;;;63.37;30.83;;;9.00;99.90;;;;;;4958525;28;20661;-83
2021/04/01 03:31:30;;;;;;;62.13;30.00;;;9.00;99.90;;;;;;4975846;28;20256;-84
2021/04/01 03:33:56;;;;;;;62.57;29.70;;;8.90;99.90;;;;;;4958809;28;20637;-85
2021/04/01 03:36:21;;;;;;;61.10;29.97;;;8.90;99.90;;;;;;4958823;28;20571;-83
2021/04/01 03:38:47;;;;;;;67.90;31.70;;;8.70;99.90;;;;;;4958982;28;20257;-84
2021/04/01 03:41:13;;;;;;;59.57;30.33;;;8.70;99.90;;;;;;4944355;29;20692;-83
2021/04/01 03:43:39;;;;;;;54.43;26.73;;;8.60;99.90;;;;;;4939421;28;20179;-82
2021/04/01 03:46:06;;;;;;;51.53;26.30;;;8.80;99.90;;;;;;4959478;28;20185;-83
2021/04/01 03:48:31;;;;;;;50.10;24.73;;;8.90;99.90;;;;;;4961423;28;20214;-85
2021/04/01 03:50:57;;;;;;;50.90;25.77;;;8.80;99.90;;;;;;4961232;28;20788;-85
2021/04/01 03:53:23;;;;;;;51.60;27.03;;;8.80;99.90;;;;;;4961564;28;20184;-83
2021/04/01 03:55:49;;;;;;;58.40;28.97;;;8.80;99.90;;;;;;4961486;28;20190;-83
2021/04/01 04:16:41;;;;;;;51.30;25.10;;;8.60;99.90;;;;;;4980437;28;20217;-83
2021/04/01 04:19:07;;;;;;;53.00;24.33;;;8.50;99.90;;;;;;4961548;28;20194;-85
2021/04/01 04:21:32;;;;;;;49.33;24.53;;;8.40;99.90;;;;;;4962904;28;20189;-83
2021/04/01 04:23:59;;;;;;;46.57;22.93;;;8.50;99.90;;;;;;4962323;28;20186;-84
2021/04/01 04:26:25;;;;;;;45.53;21.70;;;8.60;99.90;;;;;;4962232;28;20178;-84
2021/04/01 04:28:51;;;;;;;46.10;20.77;;;8.60;99.90;;;;;;4961947;28;20198;-84
2021/04/01 04:31:16;;;;;;;43.53;21.73;;;8.60;99.90;;;;;;4961690;28;20733;-83
2021/04/01 04:33:42;;;;;;;41.00;19.30;;;8.70;99.90;;;;;;4961475;28;20181;-86
2021/04/01 04:36:08;;;;;;;41.70;19.30;;;8.70;99.90;;;;;;4945828;29;20199;-85
2021/04/01 04:38:34;;;;;;;35.37;18.03;;;8.80;99.90;;;;;;4941823;29;20575;-84
2021/04/01 04:41:00;;;;;;;45.47;18.93;;;8.60;99.90;;;;;;4942193;29;20183;-83
2021/04/01 04:43:28;;;;;;;38.27;18.57;;;8.70;99.90;;;;;;4942680;29;20210;-85
2021/04/01 04:45:55;;;;;;;35.43;18.93;;;8.80;99.90;;;;;;4941858;29;20179;-85
2021/04/01 04:48:21;;;;;;;37.57;18.33;;;8.80;99.90;;;;;;4942415;29;20656;-84
2021/04/01 04:50:46;;;;;;;37.10;19.67;;;8.60;99.90;;;;;;4942642;29;20580;-84
2021/04/01 04:53:14;;;;;;;39.07;20.17;;;8.40;99.90;;;;;;4942782;29;20183;-84
2021/04/01 04:55:41;;;;;;;38.50;18.07;;;8.40;99.90;;;;;;4947514;28;20179;-83
2021/04/01 04:58:15;;;;;;;35.93;16.97;;;8.30;99.90;;;;;;4962563;28;20179;-84
2021/04/01 05:06:51;;;;;;;38.00;18.27;;;8.50;99.90;;;;;;4971694;28;20273;-85
2021/04/01 05:09:06;;;;;;;36.70;18.17;;;8.50;99.90;;;;;;4977846;28;20640;-83
2021/04/01 05:11:34;;;;;;;35.50;17.73;;;8.60;99.90;;;;;;4978535;28;20209;-83
2021/04/01 05:14:00;;;;;;;31.90;16.07;;;8.30;99.90;;;;;;4961148;28;20174;-84
2021/04/01 05:16:26;;;;;;;31.97;14.53;;;8.30;99.90;;;;;;4959914;28;20179;-85
2021/04/01 05:18:52;;;;;;;34.77;15.80;;;8.40;99.90;;;;;;4949594;28;20206;-83
2021/04/01 05:21:20;;;;;;;36.03;16.37;;;8.50;99.90;;;;;;4961357;28;20269;-86
2021/04/01 05:23:48;;;;;;;29.50;14.70;;;8.50;99.90;;;;;;4978480;28;20178;-84
2021/04/01 05:28:41;;;;;;;28.67;13.40;;;8.10;99.90;;;;;;4967767;28;20202;-83
2021/04/01 05:31:09;;;;;;;28.40;13.40;;;8.00;99.90;;;;;;4962272;28;20642;-82
2021/04/01 05:33:36;;;;;;;28.77;13.60;;;8.10;99.90;;;;;;4961916;28;20198;-84
2021/04/01 05:36:06;;;;;;;27.03;11.40;;;8.10;99.90;;;;;;4961958;28;20213;-85
2021/04/01 05:38:33;;;;;;;22.00;10.27;;;8.10;99.90;;;;;;4971428;28;20261;-83
2021/04/01 05:41:00;;;;;;;26.97;10.67;;;7.90;99.90;;;;;;4962360;28;20190;-85
2021/04/01 05:43:27;;;;;;;19.27;8.00;;;7.70;99.90;;;;;;4957316;29;20220;-83
2021/04/01 05:45:59;;;;;;;23.73;8.30;;;7.80;99.90;;;;;;4943334;29;20552;-85
2021/04/01 05:48:38;;;;;;;19.83;7.40;;;8.00;99.90;;;;;;4970477;28;20170;-84
2021/04/01 06:04:22;;;;;;;17.33;4.73;;;7.70;99.90;;;;;;4959559;29;20766;-84
2021/04/01 06:06:54;;;;;;;10.50;4.10;;;7.70;99.90;;;;;;4946460;28;20201;-84
2021/04/01 06:09:23;;;;;;;12.43;4.00;;;7.80;99.90;;;;;;4961291;28;20194;-86
2021/04/01 06:11:54;;;;;;;10.77;3.87;;;8.00;99.90;;;;;;4962171;28;20740;-83
2021/04/01 06:14:32;;;;;;;13.00;3.50;;;8.00;99.90;;;;;;4961555;28;20181;-84
2021/04/01 06:17:10;;;;;;;12.60;3.50;;;8.00;99.90;;;;;;4961466;28;20178;-83
2021/04/01 06:19:37;;;;;;;12.23;3.63;;;7.90;99.90;;;;;;4942637;29;20194;-84
2021/04/01 06:22:08;;;;;;;12.17;3.90;;;7.90;99.90;;;;;;4953796;28;20183;-85
2021/04/01 06:24:35;;;;;;;12.57;3.60;;;7.80;99.90;;;;;;4948939;28;20653;-85
2021/04/01 06:27:14;;;;;;;12.17;3.70;;;7.90;99.90;;;;;;4953767;28;20869;-84
2021/04/01 06:30:11;;;;;;;11.10;3.27;;;8.10;99.90;;;;;;4978507;28;20194;-83
2021/04/01 06:32:33;;;;;;;9.53;3.67;;;8.20;99.90;;;;;;4960498;29;20384;-84
2021/04/01 06:35:29;;;;;;;9.17;2.93;;;8.20;99.90;;;;;;4945721;28;20676;-84
2021/04/01 06:38:15;;;;;;;10.97;3.67;;;8.20;99.90;;;;;;4961483;28;20242;-85
2021/04/01 06:40:54;;;;;;;11.90;3.70;;;8.00;99.90;;;;;;4951836;29;20209;-83
2021/04/01 06:43:30;;;;;;;10.20;3.33;;;7.90;99.90;;;;;;4947368;28;20660;-84
2021/04/01 06:45:57;;;;;;;9.60;3.07;;;7.90;99.90;;;;;;4961254;28;20174;-87
2021/04/01 06:48:28;;;;;;;8.03;3.00;;;7.90;99.90;;;;;;4959416;28;20185;-83
2021/04/01 06:51:05;;;;;;;10.77;3.50;;;7.90;99.90;;;;;;4954523;28;20220;-86
2021/04/01 06:53:51;;;;;;;8.47;3.10;;;7.80;99.90;;;;;;4950080;28;20178;-85
2021/04/01 06:56:28;;;;;;;8.33;3.30;;;8.00;99.90;;;;;;4958222;28;20178;-83
2021/04/01 06:59:12;;;;;;;9.80;3.70;;;7.90;99.90;;;;;;4961123;28;20567;-83
2021/04/01 07:01:44;;;;;;;8.77;3.27;;;8.00;99.90;;;;;;4958159;28;20525;-85
2021/04/01 07:04:11;;;;;;;9.80;3.23;;;8.00;99.90;;;;;;4947720;28;20595;-83
2021/04/01 07:06:42;;;;;;;7.00;2.77;;;8.00;99.90;;;;;;4960783;28;20182;-83
2021/04/01 07:12:29;;;;;;;8.77;2.90;;;8.00;99.90;;;;;;4966496;28;20167;-85
2021/04/01 07:15:01;;;;;;;6.93;2.87;;;8.10;99.90;;;;;;4927826;28;20190;-84
2021/04/01 07:17:35;;;;;;;7.73;2.90;;;8.20;99.90;;;;;;4952441;28;20244;-84
2021/04/01 07:23:00;;;;;;;7.80;2.70;;;8.30;99.90;;;;;;4977574;28;20660;-83
2021/04/01 07:32:04;;;;;;;8.40;2.87;;;8.10;99.90;;;;;;4974802;28;20271;-84
2021/04/01 07:48:48;;;;;;;7.13;2.90;;;8.30;99.90;;;;;;4975951;28;20241;-83
2021/04/01 07:54:11;;;;;;;7.07;2.80;;;8.40;99.90;;;;;;4975147;28;20210;-83
2021/04/01 07:56:43;;;;;;;7.47;3.10;;;8.50;99.90;;;;;;4958373;28;20178;-83
2021/04/01 08:00:14;;;;;;;8.33;3.17;;;8.40;99.90;;;;;;4955775;28;20280;-84
2021/04/01 08:02:47;;;;;;;7.53;3.03;;;8.60;99.90;;;;;;4959278;28;20684;-83
2021/04/01 08:05:34;;;;;;;7.60;3.00;;;8.60;99.90;;;;;;4949549;28;20182;-83
2021/04/01 08:08:06;;;;;;;6.10;2.67;;;8.40;99.90;;;;;;4956270;28;20213;-84
2021/04/01 08:10:38;;;;;;;6.93;2.67;;;8.50;99.90;;;;;;4956772;28;20222;-84
2021/04/01 08:13:06;;;;;;;7.77;3.30;;;8.50;99.90;;;;;;4957077;28;20269;-83
2021/04/01 08:15:50;;;;;;;6.93;3.03;;;8.50;99.90;;;;;;4956114;28;20178;-84
2021/04/01 08:20:54;;;;;;;6.57;2.80;;;8.60;99.90;;;;;;4970508;28;20193;-84
2021/04/01 08:23:29;;;;;;;4.07;1.57;;;8.60;99.90;;;;;;4955911;28;20249;-83
2021/04/01 08:26:22;;;;;;;4.33;1.77;;;8.40;99.90;;;;;;4954284;28;20182;-84
2021/04/01 08:29:21;;;;;;;6.77;1.90;;;8.10;99.90;;;;;;4977294;28;20304;-83
2021/04/01 08:32:19;;;;;;;3.77;1.50;;;7.70;99.90;;;;;;4958732;28;20591;-84
2021/04/01 08:34:49;;;;;;;4.63;1.30;;;7.40;99.90;;;;;;4953563;28;20194;-84
2021/04/01 08:37:17;;;;;;;4.73;1.57;;;7.20;99.90;;;;;;4954830;28;20532;-83
2021/04/01 08:39:46;;;;;;;3.80;1.40;;;7.30;99.90;;;;;;4957134;28;20245;-84
2021/04/01 08:42:54;;;;;;;3.63;1.50;;;7.40;99.90;;;;;;4956173;28;20186;-85
2021/04/01 08:45:41;;;;;;;6.97;1.63;;;7.40;99.90;;;;;;4930647;28;20694;-83
2021/04/01 08:48:09;;;;;;;5.93;1.33;;;7.50;99.90;;;;;;4975975;28;20188;-84
2021/04/01 08:51:10;;;;;;;4.70;1.60;;;7.50;99.90;;;;;;4954948;28;20300;-85
2021/04/01 08:54:01;;;;;;;5.70;1.27;;;7.60;99.90;;;;;;4952118;28;20186;-83
2021/04/01 08:56:58;;;;;;;6.33;1.70;;;7.40;99.90;;;;;;4956366;28;20190;-82
2021/04/01 08:59:53;;;;;;;3.57;1.30;;;7.30;99.90;;;;;;4972711;28;20688;-84
2021/04/01 09:02:22;;;;;;;4.27;1.40;;;7.50;99.90;;;;;;4952768;28;20352;-83
2021/04/01 09:04:49;;;;;;;3.93;1.13;;;7.50;99.90;;;;;;4957385;28;20233;-84
2021/04/01 09:07:29;;;;;;;4.63;1.40;;;7.50;99.90;;;;;;4968995;28;20194;-84
2021/04/01 09:10:15;;;;;;;5.40;1.40;;;7.50;99.90;;;;;;4957600;28;20296;-83
2021/04/01 09:12:46;;;;;;;4.10;1.43;;;7.70;99.90;;;;;;4954962;28;20645;-83
2021/04/01 09:15:31;;;;;;;4.33;1.30;;;8.00;99.90;;;;;;4954202;28;20183;-84
2021/04/01 09:17:56;;;;;;;3.50;1.60;;;8.40;99.90;;;;;;4954780;28;20193;-86
2021/04/01 09:20:24;;;;;;;5.20;1.20;;;8.90;99.90;;;;;;4953433;28;20633;-84
2021/04/01 09:22:56;;;;;;;2.83;0.97;;;8.70;99.90;;;;;;4957239;28;20221;-83
2021/04/01 09:25:46;;;;;;;6.57;1.57;;;8.60;99.90;;;;;;4973601;28;20562;-84
2021/04/01 09:28:13;;;;;;;3.00;1.10;;;8.30;99.90;;;;;;4946964;28;20198;-84
2021/04/01 09:30:40;;;;;;;3.43;1.03;;;8.20;99.90;;;;;;4956394;28;20209;-84
2021/04/01 09:33:10;;;;;;;1.73;0.80;;;8.10;99.90;;;;;;4953264;28;20191;-84
2021/04/01 09:35:37;;;;;;;2.40;1.13;;;8.10;99.90;;;;;;4970839;28;20248;-85
2021/04/01 09:38:07;;;;;;;3.80;0.90;;;8.00;99.90;;;;;;4957521;28;20190;-84
2021/04/01 09:40:37;;;;;;;2.63;0.97;;;8.00;99.90;;;;;;4957473;28;20237;-84
2021/04/01 09:43:16;;;;;;;3.87;0.80;;;7.90;99.90;;;;;;4956034;28;20325;-84
2021/04/01 09:45:58;;;;;;;4.63;1.07;;;8.10;99.90;;;;;;4966823;28;20194;-85
2021/04/01 09:48:43;;;;;;;3.40;1.00;;;8.50;99.90;;;;;;4963957;28;20183;-86
2021/04/01 09:51:21;;;;;;;2.17;0.70;;;8.70;99.90;;;;;;4967380;28;21004;-84
2021/04/01 09:53:52;;;;;;;1.95;0.70;;;8.70;99.90;;;;;;4954311;28;20806;-85
2021/04/01 09:56:25;;;;;;;3.30;0.90;;;8.60;99.90;;;;;;4971805;28;20193;-84
2021/04/01 09:58:52;;;;;;;3.53;0.77;;;8.40;99.90;;;;;;4954591;28;20202;-84
2021/04/01 10:04:02;;;;;;;3.23;1.10;;;8.50;99.90;;;;;;4968731;28;20205;-85
2021/04/01 10:06:43;;;;;;;3.33;0.90;;;8.80;99.90;;;;;;4952690;28;20265;-84
2021/04/01 10:09:47;;;;;;;3.17;1.20;;;9.00;99.90;;;;;;4955911;28;20210;-86
2021/04/01 10:12:43;;;;;;;3.87;0.70;;;9.00;99.90;;;;;;4963427;28;20206;-85
2021/04/01 10:15:11;;;;;;;4.40;1.20;;;9.10;99.90;;;;;;4957713;28;20688;-84
2021/04/01 10:17:39;;;;;;;5.03;1.00;;;9.30;99.90;;;;;;4956592;28;20189;-85
2021/04/01 10:20:07;;;;;;;2.63;0.80;;;9.30;99.90;;;;;;4953205;28;20202;-84
2021/04/01 10:22:36;;;;;;;2.30;0.90;;;9.30;99.90;;;;;;4950631;29;20187;-85
2021/04/01 10:25:25;;;;;;;2.47;1.00;;;9.10;99.90;;;;;;4955438;28;20178;-84
2021/04/01 10:30:23;;;;;;;3.27;1.20;;;9.30;99.90;;;;;;4969563;28;20677;-84
2021/04/01 10:32:57;;;;;;;3.53;1.03;;;9.50;99.90;;;;;;4948417;28;20719;-84
2021/04/01 10:35:28;;;;;;;4.70;1.10;;;9.40;99.90;;;;;;4947482;28;20198;-85
2021/04/01 10:37:58;;;;;;;1.30;0.80;;;9.30;99.90;;;;;;4949992;28;20183;-83
2021/04/01 10:40:24;;;;;;;3.93;1.00;;;9.10;99.90;;;;;;4951972;28;20760;-83
2021/04/01 10:43:05;;;;;;;2.47;0.70;;;9.30;99.90;;;;;;4955560;28;20190;-83
2021/04/01 10:45:40;;;;;;;3.60;0.87;;;9.40;99.90;;;;;;4965893;28;20563;-85
2021/04/01 10:48:33;;;;;;;3.10;1.00;;;9.50;99.90;;;;;;4971191;28;20603;-84
2021/04/01 10:51:20;;;;;;;2.67;0.63;;;9.30;99.90;;;;;;4953410;28;20241;-83
2021/04/01 10:53:46;;;;;;;4.87;1.20;;;9.50;99.90;;;;;;4957802;28;20186;-84
2021/04/01 10:56:13;;;;;;;5.73;1.50;;;9.70;99.90;;;;;;4961809;28;20340;-84
2021/04/01 10:58:50;;;;;;;3.17;1.17;;;9.90;99.90;;;;;;4959657;28;20305;-84
2021/04/01 11:01:19;;;;;;;1.93;0.70;;;10.30;99.90;;;;;;4984183;28;20189;-85
2021/04/01 11:03:47;;;;;;;4.73;1.43;;;9.90;99.90;;;;;;4955255;28;20193;-86
2021/04/01 11:06:14;;;;;;;3.73;1.03;;;10.20;99.90;;;;;;4976620;28;20269;-84
2021/04/01 11:08:42;;;;;;;6.17;1.57;;;10.00;99.90;;;;;;4977613;28;20289;-83
2021/04/01 11:11:09;;;;;;;2.63;1.00;;;9.90;99.90;;;;;;4960040;28;20348;-84
2021/04/01 11:13:38;;;;;;;1.57;0.70;;;10.20;99.90;;;;;;4969661;28;20186;-85
2021/04/01 11:16:06;;;;;;;3.83;1.10;;;10.00;99.90;;;;;;4954492;28;20190;-83
2021/04/01 11:18:34;;;;;;;1.47;0.80;;;10.20;99.90;;;;;;4958969;28;20224;-83
2021/04/01 11:21:01;;;;;;;4.53;1.20;;;10.50;99.90;;;;;;4978983;28;20245;-83
2021/04/01 11:23:28;;;;;;;2.37;0.90;;;10.60;99.90;;;;;;4976447;28;20190;-83
2021/04/01 11:25:56;;;;;;;5.13;1.30;;;10.60;99.90;;;;;;4976298;28;20245;-84
2021/04/01 11:28:36;;;;;;;6.70;1.33;;;10.50;99.90;;;;;;4958491;28;20653;-83
2021/04/01 11:31:02;;;;;;;4.33;1.30;;;10.30;99.90;;;;;;4959567;28;20213;-84
2021/04/01 11:33:29;;;;;;;3.53;1.07;;;10.30;99.90;;;;;;4962236;28;20712;-83
2021/04/01 11:36:16;;;;;;;1.80;0.70;;;10.60;99.90;;;;;;4950915;28;20192;-84
2021/04/01 11:38:45;;;;;;;1.30;0.63;;;10.60;99.90;;;;;;4948731;29;20546;-84
2021/04/01 11:41:19;;;;;;;3.20;1.00;;;10.50;99.90;;;;;;4970195;28;20537;-85
2021/04/01 11:43:54;;;;;;;3.47;1.23;;;10.30;99.90;;;;;;4962698;28;20203;-84
2021/04/01 11:46:22;;;;;;;3.10;1.23;;;10.30;99.90;;;;;;4970849;28;20197;-83
2021/04/01 11:48:50;;;;;;;4.37;1.20;;;10.00;99.90;;;;;;4949844;28;20365;-83
2021/04/01 11:51:24;;;;;;;2.63;0.90;;;9.70;99.90;;;;;;4950114;28;20246;-83
2021/04/01 11:53:50;;;;;;;2.27;0.83;;;10.00;99.90;;;;;;4959088;28;20613;-83
2021/04/01 11:56:15;;;;;;;2.40;1.00;;;10.10;99.90;;;;;;4976814;28;20178;-85
2021/04/01 11:58:41;;;;;;;3.87;0.93;;;10.00;99.90;;;;;;4959526;28;20265;-83
2021/04/01 12:01:26;;;;;;;4.10;1.10;;;10.00;99.90;;;;;;4960191;28;20281;-84
2021/04/01 12:06:18;;;;;;;5.30;1.07;;;10.30;99.90;;;;;;4975451;28;20651;-86
2021/04/01 12:08:44;;;;;;;3.57;0.90;;;10.00;99.90;;;;;;4959225;28;20211;-84
2021/04/01 12:11:09;;;;;;;6.27;1.00;;;10.10;99.90;;;;;;4957687;28;20278;-84
2021/04/01 12:13:35;;;;;;;4.47;1.10;;;10.30;99.90;;;;;;4959204;28;20277;-85
2021/04/01 12:16:01;;;;;;;3.07;1.00;;;10.40;99.90;;;;;;4955704;28;20187;-84
2021/04/01 12:18:39;;;;;;;2.80;1.17;;;10.30;99.90;;;;;;4955154;28;20665;-83
2021/04/01 12:21:06;;;;;;;3.67;1.00;;;10.10;99.90;;;;;;4958957;28;20711;-86
2021/04/01 12:23:44;;;;;;;3.10;1.00;;;9.90;99.90;;;;;;4958688;28;20198;-83
2021/04/01 12:26:10;;;;;;;2.53;0.90;;;10.00;99.90;;;;;;4958589;28;20233;-85
2021/04/01 12:28:36;;;;;;;3.17;1.00;;;9.90;99.90;;;;;;4947706;28;20249;-85
2021/04/01 12:31:01;;;;;;;3.17;0.80;;;10.20;99.90;;;;;;4952687;29;20231;-84
2021/04/01 12:33:29;;;;;;;3.73;0.90;;;10.40;99.90;;;;;;4944990;28;20664;-83
2021/04/01 12:36:04;;;;;;;3.53;1.00;;;10.20;99.90;;;;;;4950054;28;20202;-84
2021/04/01 12:38:35;;;;;;;3.00;1.17;;;10.20;99.90;;;;;;4948385;28;20259;-84
2021/04/01 12:41:03;;;;;;;1.40;0.80;;;10.60;99.90;;;;;;4959816;28;20228;-85
2021/04/01 12:43:40;;;;;;;2.90;1.30;;;10.30;99.90;;;;;;4951672;29;20180;-84
2021/04/01 12:46:06;;;;;;;4.17;0.90;;;10.40;99.90;;;;;;4955939;28;20201;-84
2021/04/01 12:48:43;;;;;;;3.97;1.13;;;10.50;99.90;;;;;;4951791;28;20200;-84
2021/04/01 12:51:42;;;;;;;3.67;1.20;;;10.70;99.90;;;;;;4956623;28;20209;-84
2021/04/01 12:54:57;;;;;;;4.57;1.30;;;10.90;99.90;;;;;;4954223;28;20188;-84
2021/04/01 12:57:25;;;;;;;3.27;1.30;;;10.80;99.90;;;;;;4974663;28;20229;-85
2021/04/01 12:59:56;;;;;;;7.37;1.40;;;10.70;99.90;;;;;;4956902;28;20194;-83
2021/04/01 13:02:24;;;;;;;3.87;1.37;;;10.80;99.90;;;;;;4950937;29;20183;-83
2021/04/01 13:04:57;;;;;;;4.73;1.20;;;10.60;99.90;;;;;;4955226;28;20213;-83
2021/04/01 13:07:30;;;;;;;3.63;0.93;;;10.80;99.90;;;;;;4947819;28;20189;-83
2021/04/01 13:12:41;;;;;;;1.77;0.80;;;10.70;99.90;;;;;;4968204;28;20186;-84
2021/04/01 13:15:08;;;;;;;5.60;1.13;;;11.00;99.90;;;;;;4974023;28;20183;-82
2021/04/01 13:17:33;;;;;;;6.47;1.07;;;10.70;99.90;;;;;;4957649;28;20183;-84
2021/04/01 13:19:59;;;;;;;4.07;1.10;;;10.60;99.90;;;;;;4957375;28;20298;-83
2021/04/01 13:22:28;;;;;;;3.03;1.00;;;10.80;99.90;;;;;;4951859;28;20570;-84
2021/04/01 13:25:07;;;;;;;3.83;1.20;;;10.90;99.90;;;;;;4951804;28;20248;-84
2021/04/01 13:27:34;;;;;;;3.00;1.30;;;10.90;99.90;;;;;;4955959;28;20285;-85
2021/04/01 13:30:05;;;;;;;6.17;1.37;;;10.80;99.90;;;;;;4961109;28;20217;-83
2021/04/01 13:33:22;;;;;;;3.37;0.90;;;11.10;99.90;;;;;;4962279;28;20202;-85
2021/04/01 13:35:22;;;;;;;4.30;1.57;;;11.10;99.90;;;;;;4959707;28;20204;-84
2021/04/01 13:40:47;;;;;;;4.63;1.33;;;11.20;99.90;;;;;;4953874;28;20563;-83
2021/04/01 13:43:16;;;;;;;4.70;1.40;;;11.40;99.90;;;;;;4956717;28;20194;-85
2021/04/01 13:45:42;;;;;;;2.87;0.90;;;11.40;99.90;;;;;;4951781;28;20565;-83
2021/04/01 13:48:16;;;;;;;2.87;1.00;;;11.50;99.90;;;;;;4950465;28;20209;-84
2021/04/01 13:50:52;;;;;;;2.97;0.70;;;11.50;99.90;;;;;;4957213;28;20685;-85
2021/04/01 13:56:12;;;;;;;2.20;0.70;;;11.80;99.90;;;;;;4971961;28;21117;-86
2021/04/01 14:10:21;;;;;;;6.40;0.70;;;11.60;99.90;;;;;;4966906;28;20266;-85
2021/04/01 14:12:52;;;;;;;6.50;0.90;;;11.40;99.90;;;;;;4948288;28;20182;-84
2021/04/01 14:15:18;;;;;;;3.50;0.60;;;11.50;99.90;;;;;;4949810;28;20656;-84
2021/04/01 14:17:44;;;;;;;2.33;0.63;;;11.80;99.90;;;;;;4950188;28;20184;-86
2021/04/01 14:20:13;;;;;;;2.90;0.80;;;11.90;99.90;;;;;;4954761;28;20215;-84
2021/04/01 14:22:42;;;;;;;1.93;0.50;;;11.90;99.90;;;;;;4969335;28;20175;-84
2021/04/01 14:28:01;;;;;;;7.00;1.30;;;11.20;99.90;;;;;;4970053;28;20276;-84
2021/04/01 14:30:27;;;;;;;3.67;0.93;;;10.80;99.90;;;;;;4953838;28;20226;-84
2021/04/01 14:32:53;;;;;;;5.87;1.40;;;10.40;99.90;;;;;;4954092;28;20181;-84
2021/04/01 14:35:21;;;;;;;4.93;0.90;;;10.60;99.90;;;;;;4953033;28;20633;-84
2021/04/01 14:37:47;;;;;;;1.73;0.53;;;10.60;99.90;;;;;;4956149;28;20184;-84
2021/04/01 14:40:13;;;;;;;2.80;1.07;;;10.40;99.90;;;;;;4954326;28;20203;-83
2021/04/01 14:42:49;;;;;;;5.23;1.00;;;10.10;99.90;;;;;;4956212;28;20187;-83
2021/04/01 14:45:17;;;;;;;4.85;1.27;;;10.10;99.90;;;;;;4955987;28;20430;-83